Time;durP1;ratioP1;P1;durP2;ratioP2;P2;SDS_P1;SDS_P2;PMS_P1;PMS_P2;Temp;Humidity;BMP_temperature;BMP_pressure;BME280_temperature;BME280_humidity;BME280_pressure;Samples;Min_cycle;Max_cycle;Signal;HPM_P1;HPM_P2
2021/06/23 00:00:30;;;;;;;9.55;8.13;;;;;;;;;;1497549;39;20035;-62
2021/06/23 00:01:31;;;;;;;10.95;7.82;;;;;;;;;;1497269;39;20024;-62
2021/06/23 00:02:33;;;;;;;9.65;8.00;;;;;;;;;;1497379;39;20038;-62
2021/06/23 00:03:34;;;;;;;9.60;7.57;;;;;;;;;;1497593;39;20028;-62
2021/06/23 00:04:36;;;;;;;8.45;6.90;;;;;;;;;;1497292;39;20368;-62
2021/06/23 00:05:37;;;;;;;7.63;6.80;;;;;;;;;;1497562;39;20023;-62
2021/06/23 00:06:38;;;;;;;7.85;6.97;;;;;;;;;;1497398;39;20117;-62
2021/06/23 00:07:39;;;;;;;9.27;6.93;;;;;;;;;;1497564;39;20115;-61
2021/06/23 00:08:41;;;;;;;8.75;7.20;;;;;;;;;;1497254;39;20027;-61
2021/06/23 00:09:42;;;;;;;8.82;6.95;;;;;;;;;;1497277;39;20387;-60
2021/06/23 00:10:46;;;;;;;10.60;6.88;;;;;;;;;;1497499;39;20027;-62
2021/06/23 00:11:50;;;;;;;8.07;6.63;;;;;;;;;;1497406;39;20419;-62
2021/06/23 00:12:53;;;;;;;7.53;6.35;;;;;;;;;;1497547;39;20063;-62
2021/06/23 00:13:54;;;;;;;6.80;5.63;;;;;;;;;;1497328;39;20383;-62
2021/06/23 00:14:56;;;;;;;7.50;5.72;;;;;;;;;;1497342;39;20035;-62
2021/06/23 00:15:57;;;;;;;7.18;5.80;;;;;;;;;;1497306;39;20407;-62
2021/06/23 00:16:59;;;;;;;7.75;5.90;;;;;;;;;;1496796;39;20023;-62
2021/06/23 00:18:00;;;;;;;8.52;6.10;;;;;;;;;;1496727;39;20077;-61
2021/06/23 00:19:02;;;;;;;10.60;6.28;;;;;;;;;;1497231;39;20051;-62
2021/06/23 00:20:04;;;;;;;9.35;5.88;;;;;;;;;;1497619;39;20059;-61
2021/06/23 00:21:06;;;;;;;7.50;6.18;;;;;;;;;;1497528;39;20031;-64
2021/06/23 00:22:07;;;;;;;8.05;5.63;;;;;;;;;;1497487;39;20035;-62
2021/06/23 00:23:09;;;;;;;6.38;5.38;;;;;;;;;;1497294;39;20027;-62
2021/06/23 00:24:16;;;;;;;8.52;5.95;;;;;;;;;;1497244;39;20039;-62
2021/06/23 00:25:18;;;;;;;10.40;6.45;;;;;;;;;;1497370;39;20050;-62
2021/06/23 00:26:20;;;;;;;9.75;5.95;;;;;;;;;;1497243;39;20035;-62
2021/06/23 00:27:22;;;;;;;8.35;5.65;;;;;;;;;;1497326;39;20122;-62
2021/06/23 00:28:42;;;;;;;11.40;5.78;;;;;;;;;;1497394;39;20031;-61
2021/06/23 00:29:43;;;;;;;9.25;5.80;;;;;;;;;;1497289;39;20384;-62
2021/06/23 00:31:00;;;;;;;6.65;5.22;;;;;;;;;;1497344;39;20036;-62
2021/06/23 00:32:02;;;;;;;10.18;6.05;;;;;;;;;;1497219;39;20059;-61
2021/06/23 00:33:06;;;;;;;8.98;6.28;;;;;;;;;;1497221;39;20383;-62
2021/06/23 00:34:10;;;;;;;8.55;5.80;;;;;;;;;;1497222;39;20417;-62
2021/06/23 00:35:13;;;;;;;8.65;6.30;;;;;;;;;;1497327;39;20282;-62
2021/06/23 00:36:14;;;;;;;9.63;6.03;;;;;;;;;;1497376;39;20042;-62
2021/06/23 00:37:16;;;;;;;10.40;6.25;;;;;;;;;;1497603;39;20027;-62
2021/06/23 00:38:17;;;;;;;8.52;6.40;;;;;;;;;;1497225;39;20034;-62
2021/06/23 00:39:18;;;;;;;8.98;6.47;;;;;;;;;;1497427;39;20023;-62
2021/06/23 00:40:20;;;;;;;9.73;6.22;;;;;;;;;;1496969;39;20383;-62
2021/06/23 00:41:23;;;;;;;10.27;6.32;;;;;;;;;;1497072;39;20329;-62
2021/06/23 00:42:24;;;;;;;8.98;6.85;;;;;;;;;;1497200;39;20483;-62
2021/06/23 00:43:27;;;;;;;8.63;5.97;;;;;;;;;;1497360;39;20032;-62
2021/06/23 00:44:29;;;;;;;7.22;6.07;;;;;;;;;;1497384;39;20038;-61
2021/06/23 00:45:31;;;;;;;8.98;6.18;;;;;;;;;;1497367;39;20035;-60
2021/06/23 00:46:32;;;;;;;7.72;5.97;;;;;;;;;;1497370;39;20024;-62
2021/06/23 00:47:35;;;;;;;8.60;6.05;;;;;;;;;;1497450;39;20043;-62
2021/06/23 00:48:36;;;;;;;8.52;6.18;;;;;;;;;;1497187;39;20284;-61
2021/06/23 00:49:38;;;;;;;7.90;5.70;;;;;;;;;;1497203;39;20085;-61
2021/06/23 00:50:40;;;;;;;8.77;5.95;;;;;;;;;;1497224;39;20028;-61
2021/06/23 00:51:42;;;;;;;8.20;6.07;;;;;;;;;;1497477;39;20027;-61
2021/06/23 00:52:43;;;;;;;6.55;5.28;;;;;;;;;;1497394;39;20027;-61
2021/06/23 00:53:45;;;;;;;8.63;5.82;;;;;;;;;;1497249;39;20036;-61
2021/06/23 00:54:47;;;;;;;8.45;5.30;;;;;;;;;;1496690;39;20032;-60
2021/06/23 00:55:52;;;;;;;6.93;5.68;;;;;;;;;;1496937;39;20027;-61
2021/06/23 00:56:56;;;;;;;5.90;5.25;;;;;;;;;;1497374;39;20030;-62
2021/06/23 00:57:58;;;;;;;8.32;5.50;;;;;;;;;;1497206;39;20028;-60
2021/06/23 00:58:59;;;;;;;7.30;5.82;;;;;;;;;;1497151;39;20047;-61
2021/06/23 01:00:01;;;;;;;6.88;5.55;;;;;;;;;;1497331;39;20019;-61
2021/06/23 01:01:03;;;;;;;7.80;5.25;;;;;;;;;;1497296;39;20031;-62
2021/06/23 01:02:05;;;;;;;7.38;5.97;;;;;;;;;;1497142;39;20302;-61
2021/06/23 01:03:09;;;;;;;7.28;5.90;;;;;;;;;;1497113;39;20030;-61
2021/06/23 01:04:11;;;;;;;7.28;5.20;;;;;;;;;;1497158;39;20105;-62
2021/06/23 01:05:13;;;;;;;7.20;5.28;;;;;;;;;;1497333;39;20038;-61
2021/06/23 01:06:15;;;;;;;7.00;5.32;;;;;;;;;;1497490;39;20104;-61
2021/06/23 01:07:16;;;;;;;7.10;5.47;;;;;;;;;;1497145;39;20038;-62
2021/06/23 01:08:21;;;;;;;6.07;4.70;;;;;;;;;;1496838;39;20030;-62
2021/06/23 01:09:22;;;;;;;8.60;4.95;;;;;;;;;;1496664;39;20032;-62
2021/06/23 01:10:24;;;;;;;6.20;4.93;;;;;;;;;;1497395;39;20027;-61
2021/06/23 01:11:27;;;;;;;6.32;5.30;;;;;;;;;;1497304;39;20027;-61
2021/06/23 01:13:11;;;;;;;5.88;4.80;;;;;;;;;;1497296;39;20059;-62
2021/06/23 01:14:13;;;;;;;5.78;4.68;;;;;;;;;;1483858;40;20025;-61
2021/06/23 01:15:15;;;;;;;6.38;4.72;;;;;;;;;;1495329;39;20039;-62
2021/06/23 01:16:19;;;;;;;6.53;4.68;;;;;;;;;;1497309;39;20054;-61
2021/06/23 01:17:21;;;;;;;6.95;5.18;;;;;;;;;;1497202;39;20303;-62
2021/06/23 01:18:23;;;;;;;5.40;4.38;;;;;;;;;;1497127;39;20285;-60
2021/06/23 01:19:26;;;;;;;5.93;4.78;;;;;;;;;;1497185;39;20031;-61
2021/06/23 01:20:27;;;;;;;6.93;4.55;;;;;;;;;;1497299;39;20038;-61
2021/06/23 01:21:29;;;;;;;6.82;4.53;;;;;;;;;;1497096;39;20317;-61
2021/06/23 01:22:31;;;;;;;7.03;4.80;;;;;;;;;;1497154;39;20276;-61
2021/06/23 01:23:34;;;;;;;7.10;4.60;;;;;;;;;;1497052;39;20023;-61
2021/06/23 01:24:34;;;;;;;6.50;4.38;;;;;;;;;;1497205;39;20027;-61
2021/06/23 01:25:36;;;;;;;6.05;4.78;;;;;;;;;;1497203;39;20024;-61
2021/06/23 01:26:37;;;;;;;6.65;4.28;;;;;;;;;;1497234;39;20034;-60
2021/06/23 01:27:41;;;;;;;5.35;3.95;;;;;;;;;;1497187;39;20034;-61
2021/06/23 01:28:42;;;;;;;5.50;4.22;;;;;;;;;;1497005;39;20031;-61
2021/06/23 01:29:44;;;;;;;7.55;4.68;;;;;;;;;;1497076;39;20031;-61
2021/06/23 01:30:45;;;;;;;6.97;4.30;;;;;;;;;;1497072;39;20395;-61
2021/06/23 01:31:47;;;;;;;5.43;4.10;;;;;;;;;;1497283;39;20036;-61
2021/06/23 01:32:48;;;;;;;5.90;4.45;;;;;;;;;;1497070;39;20031;-61
2021/06/23 01:33:51;;;;;;;6.18;4.40;;;;;;;;;;1497332;39;20043;-61
2021/06/23 01:34:52;;;;;;;4.95;4.10;;;;;;;;;;1497211;39;20019;-62
2021/06/23 01:35:54;;;;;;;5.90;4.03;;;;;;;;;;1497403;39;20034;-62
2021/06/23 01:36:55;;;;;;;6.57;4.78;;;;;;;;;;1497104;39;20319;-61
2021/06/23 01:38:02;;;;;;;6.20;4.30;;;;;;;;;;1497152;39;20056;-61
2021/06/23 01:39:03;;;;;;;4.95;4.32;;;;;;;;;;1497008;39;20160;-61
2021/06/23 01:40:07;;;;;;;6.00;4.35;;;;;;;;;;1497128;39;20035;-61
2021/06/23 01:41:09;;;;;;;6.40;4.30;;;;;;;;;;1497335;39;20023;-61
2021/06/23 01:42:10;;;;;;;5.85;4.47;;;;;;;;;;1497103;39;20027;-61
2021/06/23 01:43:13;;;;;;;5.82;4.40;;;;;;;;;;1497116;39;20031;-60
2021/06/23 01:44:13;;;;;;;7.75;4.50;;;;;;;;;;1497226;39;20077;-61
2021/06/23 01:45:16;;;;;;;5.43;4.50;;;;;;;;;;1497115;39;20440;-62
2021/06/23 01:46:17;;;;;;;7.13;4.78;;;;;;;;;;1497081;39;20023;-61
2021/06/23 01:47:18;;;;;;;6.05;4.68;;;;;;;;;;1497288;39;20039;-61
2021/06/23 01:48:21;;;;;;;6.18;4.57;;;;;;;;;;1497135;39;20027;-61
2021/06/23 01:49:25;;;;;;;6.43;4.75;;;;;;;;;;1497317;39;20035;-61
2021/06/23 01:50:26;;;;;;;5.80;4.82;;;;;;;;;;1497157;39;20030;-61
2021/06/23 01:51:28;;;;;;;6.75;5.45;;;;;;;;;;1497083;39;20072;-61
2021/06/23 01:52:29;;;;;;;6.03;4.70;;;;;;;;;;1496499;39;20023;-61
2021/06/23 01:53:35;;;;;;;6.20;5.05;;;;;;;;;;1497116;39;20023;-61
2021/06/23 01:54:40;;;;;;;6.68;5.20;;;;;;;;;;1497201;39;20030;-60
2021/06/23 01:55:41;;;;;;;9.38;5.70;;;;;;;;;;1497078;39;20030;-61
2021/06/23 01:56:42;;;;;;;7.57;5.60;;;;;;;;;;1497050;39;20291;-61
2021/06/23 01:57:44;;;;;;;7.68;5.30;;;;;;;;;;1496965;39;20369;-61
2021/06/23 01:58:45;;;;;;;7.28;5.50;;;;;;;;;;1497160;39;20038;-61
2021/06/23 01:59:48;;;;;;;7.38;5.22;;;;;;;;;;1496523;39;20027;-61
2021/06/23 02:00:56;;;;;;;6.93;5.47;;;;;;;;;;1496787;39;20023;-61
2021/06/23 02:02:05;;;;;;;8.63;6.13;;;;;;;;;;1497280;39;20063;-61
2021/06/23 02:03:14;;;;;;;7.85;5.72;;;;;;;;;;1497171;39;20030;-60
2021/06/23 02:04:34;;;;;;;8.60;7.00;;;;;;;;;;1497108;39;20328;-61
2021/06/23 02:05:43;;;;;;;7.70;6.37;;;;;;;;;;1497052;39;20410;-61
2021/06/23 02:07:15;;;;;;;11.55;6.65;;;;;;;;;;1497064;39;20249;-61
2021/06/23 02:08:29;;;;;;;8.27;5.85;;;;;;;;;;1497122;39;20023;-61
2021/06/23 02:10:01;;;;;;;10.13;6.03;;;;;;;;;;1496969;39;20027;-61
2021/06/23 02:11:09;;;;;;;12.07;5.97;;;;;;;;;;1497294;39;20035;-61
2021/06/23 02:12:26;;;;;;;9.82;5.90;;;;;;;;;;1497042;39;20405;-61
2021/06/23 02:14:04;;;;;;;10.23;6.22;;;;;;;;;;1497220;39;20027;-61
2021/06/23 02:15:06;;;;;;;12.43;7.65;;;;;;;;;;1497028;39;20039;-61
2021/06/23 02:16:10;;;;;;;11.02;6.72;;;;;;;;;;1497149;39;20027;-61
2021/06/23 02:17:12;;;;;;;8.50;6.40;;;;;;;;;;1497188;39;20063;-61
2021/06/23 02:18:12;;;;;;;10.57;7.13;;;;;;;;;;1496950;39;20299;-61
2021/06/23 02:19:15;;;;;;;9.75;7.63;;;;;;;;;;1497125;39;20035;-60
2021/06/23 02:20:17;;;;;;;10.85;8.35;;;;;;;;;;1497257;39;20027;-61
2021/06/23 02:21:19;;;;;;;11.75;8.82;;;;;;;;;;1497068;39;20079;-61
2021/06/23 02:22:22;;;;;;;12.20;8.70;;;;;;;;;;1496985;39;20406;-61
2021/06/23 02:23:24;;;;;;;11.43;8.85;;;;;;;;;;1497219;39;20054;-61
2021/06/23 02:24:28;;;;;;;11.80;9.13;;;;;;;;;;1496839;39;20023;-61
2021/06/23 02:25:31;;;;;;;14.13;9.93;;;;;;;;;;1497116;39;20075;-61
2021/06/23 02:26:39;;;;;;;11.95;9.90;;;;;;;;;;1496922;39;20079;-61
2021/06/23 02:27:42;;;;;;;18.33;11.95;;;;;;;;;;1497029;39;20031;-61
2021/06/23 02:28:43;;;;;;;16.83;11.88;;;;;;;;;;1496881;39;20311;-60
2021/06/23 02:29:46;;;;;;;14.00;10.98;;;;;;;;;;1497192;39;20027;-61
2021/06/23 02:30:47;;;;;;;16.48;11.68;;;;;;;;;;1496898;39;20390;-61
2021/06/23 02:31:52;;;;;;;18.85;13.02;;;;;;;;;;1497034;39;20028;-61
2021/06/23 02:32:54;;;;;;;16.95;12.80;;;;;;;;;;1497236;39;20116;-61
2021/06/23 02:33:57;;;;;;;18.50;12.73;;;;;;;;;;1497167;39;20035;-61
2021/06/23 02:35:01;;;;;;;16.75;12.90;;;;;;;;;;1496886;39;20043;-61
2021/06/23 02:36:04;;;;;;;21.52;15.55;;;;;;;;;;1496976;39;20398;-61
2021/06/23 02:37:05;;;;;;;23.58;15.85;;;;;;;;;;1496933;39;20028;-61
2021/06/23 02:38:08;;;;;;;19.88;16.00;;;;;;;;;;1497232;39;20043;-61
2021/06/23 02:39:09;;;;;;;17.95;14.48;;;;;;;;;;1496808;39;20051;-60
2021/06/23 02:40:13;;;;;;;20.92;15.55;;;;;;;;;;1497243;39;20027;-61
2021/06/23 02:41:16;;;;;;;19.92;15.50;;;;;;;;;;1497010;39;20069;-61
2021/06/23 02:42:18;;;;;;;21.13;14.80;;;;;;;;;;1497079;39;20032;-61
2021/06/23 02:43:19;;;;;;;21.63;16.13;;;;;;;;;;1496816;39;20027;-61
2021/06/23 02:44:21;;;;;;;22.17;16.27;;;;;;;;;;1497007;39;20031;-61
2021/06/23 02:45:23;;;;;;;22.23;15.32;;;;;;;;;;1496920;39;20035;-61
2021/06/23 02:46:25;;;;;;;19.80;15.13;;;;;;;;;;1496849;39;20034;-60
2021/06/23 02:47:26;;;;;;;22.15;16.77;;;;;;;;;;1496942;39;20264;-61
2021/06/23 02:48:28;;;;;;;23.52;16.70;;;;;;;;;;1497074;39;20099;-60
2021/06/23 02:49:29;;;;;;;23.42;17.30;;;;;;;;;;1496928;39;20028;-61
2021/06/23 02:50:36;;;;;;;22.02;16.90;;;;;;;;;;1497078;39;20034;-61
2021/06/23 02:51:39;;;;;;;20.23;15.93;;;;;;;;;;1497121;39;20027;-61
2021/06/23 02:52:42;;;;;;;22.15;16.33;;;;;;;;;;1496864;39;20421;-61
2021/06/23 02:53:44;;;;;;;20.20;16.38;;;;;;;;;;1496784;39;20031;-61
2021/06/23 02:54:47;;;;;;;18.85;15.32;;;;;;;;;;1496281;39;20093;-61
2021/06/23 02:55:48;;;;;;;22.95;16.75;;;;;;;;;;1496345;39;20054;-62
2021/06/23 02:56:51;;;;;;;24.95;16.92;;;;;;;;;;1497185;39;20035;-61
2021/06/23 02:57:54;;;;;;;22.75;17.48;;;;;;;;;;1497005;39;20039;-61
2021/06/23 02:58:57;;;;;;;21.52;16.63;;;;;;;;;;1496826;39;20035;-60
2021/06/23 02:59:59;;;;;;;19.85;16.13;;;;;;;;;;1496827;39;20034;-61
2021/06/23 03:01:02;;;;;;;23.63;17.75;;;;;;;;;;1496950;39;20039;-61
2021/06/23 03:02:04;;;;;;;24.05;17.65;;;;;;;;;;1496811;39;20034;-61
2021/06/23 03:03:06;;;;;;;24.20;17.80;;;;;;;;;;1496418;39;20077;-62
2021/06/23 03:04:16;;;;;;;22.17;17.08;;;;;;;;;;1496898;39;20399;-61
2021/06/23 03:05:18;;;;;;;25.05;17.30;;;;;;;;;;1497669;39;20078;-60
2021/06/23 03:06:19;;;;;;;21.42;16.00;;;;;;;;;;1497640;39;20027;-61
2021/06/23 03:07:22;;;;;;;21.90;17.88;;;;;;;;;;1497508;39;20034;-61
2021/06/23 03:08:23;;;;;;;20.50;16.35;;;;;;;;;;1497670;39;20031;-60
2021/06/23 03:09:24;;;;;;;22.40;16.77;;;;;;;;;;1497483;39;20275;-61
2021/06/23 03:10:25;;;;;;;19.67;16.38;;;;;;;;;;1497629;39;20031;-61
2021/06/23 03:11:32;;;;;;;20.45;16.92;;;;;;;;;;1497393;39;20031;-61
2021/06/23 03:12:35;;;;;;;23.77;17.50;;;;;;;;;;1497723;39;20038;-61
2021/06/23 03:13:37;;;;;;;22.77;17.15;;;;;;;;;;1497584;39;20030;-61
2021/06/23 03:14:38;;;;;;;26.00;17.40;;;;;;;;;;1496899;39;20028;-61
2021/06/23 03:15:40;;;;;;;21.15;16.67;;;;;;;;;;1497214;39;20076;-61
2021/06/23 03:16:40;;;;;;;21.52;15.98;;;;;;;;;;1497428;39;20036;-61
2021/06/23 03:17:42;;;;;;;20.00;16.08;;;;;;;;;;1497374;39;20019;-61
2021/06/23 03:18:43;;;;;;;20.23;16.13;;;;;;;;;;1497629;39;20031;-57
2021/06/23 03:19:45;;;;;;;22.75;16.67;;;;;;;;;;1497652;39;20028;-57
2021/06/23 03:20:46;;;;;;;19.95;16.13;;;;;;;;;;1497382;39;20023;-57
2021/06/23 03:21:48;;;;;;;21.10;15.90;;;;;;;;;;1497484;39;20027;-57
2021/06/23 03:22:49;;;;;;;20.88;16.33;;;;;;;;;;1497451;39;20417;-57
2021/06/23 03:23:55;;;;;;;18.80;15.05;;;;;;;;;;1497464;39;20035;-57
2021/06/23 03:24:55;;;;;;;21.98;16.05;;;;;;;;;;1497402;39;20034;-57
2021/06/23 03:25:58;;;;;;;21.02;15.50;;;;;;;;;;1497486;39;20031;-57
2021/06/23 03:26:59;;;;;;;20.67;15.45;;;;;;;;;;1497474;39;20087;-57
2021/06/23 03:28:04;;;;;;;21.27;16.13;;;;;;;;;;1497482;39;20081;-57
2021/06/23 03:29:26;;;;;;;23.80;17.40;;;;;;;;;;1497640;39;20043;-57
2021/06/23 03:30:29;;;;;;;20.63;15.65;;;;;;;;;;1497430;39;20305;-57
2021/06/23 03:31:31;;;;;;;23.45;16.52;;;;;;;;;;1497398;39;20023;-57
2021/06/23 03:32:33;;;;;;;18.95;15.75;;;;;;;;;;1497424;39;20031;-57
2021/06/23 03:33:34;;;;;;;20.45;15.43;;;;;;;;;;1497353;39;20390;-57
2021/06/23 03:34:36;;;;;;;19.88;15.80;;;;;;;;;;1497599;39;20039;-57
2021/06/23 03:35:37;;;;;;;20.48;16.35;;;;;;;;;;1497464;39;20033;-57
2021/06/23 03:36:39;;;;;;;20.70;15.95;;;;;;;;;;1497425;39;20031;-57
2021/06/23 03:37:40;;;;;;;20.45;15.10;;;;;;;;;;1497532;39;20031;-57
2021/06/23 03:38:42;;;;;;;20.50;15.38;;;;;;;;;;1497488;39;20035;-57
2021/06/23 03:39:43;;;;;;;22.23;16.92;;;;;;;;;;1497352;39;20321;-57
2021/06/23 03:40:45;;;;;;;19.65;14.70;;;;;;;;;;1497608;39;20039;-57
2021/06/23 03:41:46;;;;;;;21.75;15.57;;;;;;;;;;1497370;39;20385;-57
2021/06/23 03:42:48;;;;;;;18.00;14.60;;;;;;;;;;1497658;39;20034;-57
2021/06/23 03:43:50;;;;;;;18.33;14.23;;;;;;;;;;1497479;39;20299;-57
2021/06/23 03:44:52;;;;;;;19.98;14.57;;;;;;;;;;1497354;39;20283;-57
2021/06/23 03:45:53;;;;;;;18.90;14.80;;;;;;;;;;1497557;39;20028;-57
2021/06/23 03:46:55;;;;;;;19.92;15.40;;;;;;;;;;1497475;39;20028;-57
2021/06/23 03:47:56;;;;;;;20.27;15.30;;;;;;;;;;1497539;39;20023;-57
2021/06/23 03:48:58;;;;;;;22.63;15.15;;;;;;;;;;1497613;39;20309;-57
2021/06/23 03:49:59;;;;;;;19.67;15.02;;;;;;;;;;1497349;39;20023;-57
2021/06/23 03:51:00;;;;;;;18.40;15.18;;;;;;;;;;1497447;39;20093;-57
2021/06/23 03:52:02;;;;;;;21.13;15.30;;;;;;;;;;1497527;39;20034;-57
2021/06/23 03:53:04;;;;;;;24.10;16.33;;;;;;;;;;1497699;39;20043;-57
2021/06/23 03:54:05;;;;;;;21.70;14.73;;;;;;;;;;1497372;39;20023;-57
2021/06/23 03:55:09;;;;;;;19.42;14.35;;;;;;;;;;1497635;39;20039;-57
2021/06/23 03:56:10;;;;;;;19.85;15.05;;;;;;;;;;1496933;39;20032;-57
2021/06/23 03:57:11;;;;;;;17.15;13.93;;;;;;;;;;1497031;39;20031;-57
2021/06/23 03:58:12;;;;;;;20.17;13.93;;;;;;;;;;1497299;39;20395;-57
2021/06/23 03:59:16;;;;;;;19.40;14.50;;;;;;;;;;1497305;39;20040;-57
2021/06/23 04:00:18;;;;;;;21.25;14.65;;;;;;;;;;1497326;39;20027;-57
2021/06/23 04:01:19;;;;;;;22.42;15.32;;;;;;;;;;1497475;39;20027;-57
2021/06/23 04:02:21;;;;;;;21.30;14.88;;;;;;;;;;1497487;39;20027;-57
2021/06/23 04:03:23;;;;;;;20.38;14.45;;;;;;;;;;1496907;39;20027;-57
2021/06/23 04:04:23;;;;;;;18.63;14.30;;;;;;;;;;1496836;39;20032;-57
2021/06/23 04:05:26;;;;;;;18.95;14.35;;;;;;;;;;1497228;39;20120;-57
2021/06/23 04:06:27;;;;;;;16.67;14.27;;;;;;;;;;1497434;39;20028;-57
2021/06/23 04:07:29;;;;;;;18.30;15.00;;;;;;;;;;1497391;39;20040;-57
2021/06/23 04:08:30;;;;;;;19.85;15.35;;;;;;;;;;1497378;39;20024;-57
2021/06/23 04:09:32;;;;;;;17.98;14.40;;;;;;;;;;1497332;39;20038;-57
2021/06/23 04:10:32;;;;;;;18.48;14.25;;;;;;;;;;1497435;39;20034;-57
2021/06/23 04:11:34;;;;;;;17.40;14.07;;;;;;;;;;1497391;39;20028;-57
2021/06/23 04:12:35;;;;;;;21.60;16.05;;;;;;;;;;1497278;39;20028;-57
2021/06/23 04:13:37;;;;;;;20.50;14.63;;;;;;;;;;1497269;39;20406;-57
2021/06/23 04:14:39;;;;;;;19.27;14.95;;;;;;;;;;1497578;39;20031;-57
2021/06/23 04:15:41;;;;;;;20.35;14.80;;;;;;;;;;1496888;39;20035;-57
2021/06/23 04:16:42;;;;;;;20.48;15.30;;;;;;;;;;1497521;39;20027;-57
2021/06/23 04:17:46;;;;;;;19.10;14.60;;;;;;;;;;1497345;39;20291;-57
2021/06/23 04:18:46;;;;;;;21.15;15.20;;;;;;;;;;1497194;39;20027;-57
2021/06/23 04:19:48;;;;;;;21.42;14.93;;;;;;;;;;1497375;39;20039;-57
2021/06/23 04:20:49;;;;;;;22.60;15.38;;;;;;;;;;1497484;39;20023;-57
2021/06/23 04:21:51;;;;;;;21.50;15.00;;;;;;;;;;1497398;39;20049;-57
2021/06/23 04:22:52;;;;;;;19.02;15.07;;;;;;;;;;1497280;39;20023;-57
2021/06/23 04:23:54;;;;;;;22.70;15.90;;;;;;;;;;1497507;39;20024;-57
2021/06/23 04:24:55;;;;;;;24.13;16.80;;;;;;;;;;1497242;39;20027;-57
2021/06/23 04:25:57;;;;;;;21.55;16.33;;;;;;;;;;1497262;39;20067;-59
2021/06/23 04:26:57;;;;;;;22.83;16.40;;;;;;;;;;1497200;39;20031;-57
2021/06/23 04:27:59;;;;;;;23.55;16.08;;;;;;;;;;1497258;39;20028;-57
2021/06/23 04:29:00;;;;;;;21.60;17.30;;;;;;;;;;1497350;39;20031;-57
2021/06/23 04:30:05;;;;;;;22.67;17.08;;;;;;;;;;1497254;39;20024;-57
2021/06/23 04:31:06;;;;;;;23.45;16.17;;;;;;;;;;1497510;39;20031;-57
2021/06/23 04:32:08;;;;;;;21.60;16.75;;;;;;;;;;1497350;39;20035;-57
2021/06/23 04:33:09;;;;;;;23.60;17.88;;;;;;;;;;1497441;39;20069;-58
2021/06/23 04:34:11;;;;;;;24.35;18.55;;;;;;;;;;1497325;39;20333;-58
2021/06/23 04:35:12;;;;;;;25.88;19.02;;;;;;;;;;1497379;39;20402;-57
2021/06/23 04:36:14;;;;;;;28.00;18.83;;;;;;;;;;1497311;39;20035;-58
2021/06/23 04:37:15;;;;;;;25.45;19.42;;;;;;;;;;1497246;39;20032;-58
2021/06/23 04:38:17;;;;;;;28.20;19.92;;;;;;;;;;1497278;39;20031;-57
2021/06/23 04:39:18;;;;;;;25.73;19.23;;;;;;;;;;1497185;39;20057;-57
2021/06/23 04:40:20;;;;;;;24.60;18.60;;;;;;;;;;1497411;39;20038;-57
2021/06/23 04:41:21;;;;;;;28.85;20.25;;;;;;;;;;1497360;39;20042;-57
2021/06/23 04:42:23;;;;;;;29.13;19.60;;;;;;;;;;1497394;39;20027;-56
2021/06/23 04:43:24;;;;;;;26.65;19.20;;;;;;;;;;1497187;39;20298;-57
2021/06/23 04:44:25;;;;;;;26.52;19.15;;;;;;;;;;1497240;39;20027;-57
2021/06/23 04:45:27;;;;;;;26.15;19.73;;;;;;;;;;1497124;39;20493;-57
2021/06/23 04:46:32;;;;;;;29.77;20.52;;;;;;;;;;1497169;39;20030;-57
2021/06/23 04:47:33;;;;;;;27.98;20.25;;;;;;;;;;1497411;39;20027;-57
2021/06/23 04:48:35;;;;;;;28.27;20.58;;;;;;;;;;1497476;39;20294;-57
2021/06/23 04:49:36;;;;;;;28.17;20.25;;;;;;;;;;1497259;39;20050;-57
2021/06/23 04:50:38;;;;;;;27.83;19.20;;;;;;;;;;1497205;39;20035;-57
2021/06/23 04:51:39;;;;;;;28.27;21.33;;;;;;;;;;1497432;39;20028;-57
2021/06/23 04:52:40;;;;;;;28.77;20.85;;;;;;;;;;1497375;39;20023;-57
2021/06/23 04:53:42;;;;;;;29.40;21.35;;;;;;;;;;1497248;39;20391;-57
2021/06/23 04:54:43;;;;;;;28.80;21.55;;;;;;;;;;1497352;39;20023;-57
2021/06/23 04:55:44;;;;;;;29.40;22.00;;;;;;;;;;1497351;39;20023;-57
2021/06/23 04:56:46;;;;;;;32.30;22.75;;;;;;;;;;1497433;39;20131;-57
2021/06/23 04:57:47;;;;;;;30.48;22.85;;;;;;;;;;1497140;39;20028;-57
2021/06/23 04:58:49;;;;;;;30.63;21.83;;;;;;;;;;1497146;39;20038;-57
2021/06/23 04:59:50;;;;;;;30.90;22.45;;;;;;;;;;1497098;39;20023;-57
2021/06/23 05:00:54;;;;;;;32.28;22.40;;;;;;;;;;1497122;39;20471;-57
2021/06/23 05:01:55;;;;;;;29.05;21.70;;;;;;;;;;1497081;39;20027;-57
2021/06/23 05:02:56;;;;;;;30.10;21.95;;;;;;;;;;1497378;39;20028;-58
2021/06/23 05:03:57;;;;;;;31.83;22.35;;;;;;;;;;1497182;39;20053;-57
2021/06/23 05:05:00;;;;;;;31.83;21.83;;;;;;;;;;1497407;39;20028;-58
2021/06/23 05:06:02;;;;;;;32.25;21.98;;;;;;;;;;1497306;39;20298;-57
2021/06/23 05:07:07;;;;;;;32.58;22.42;;;;;;;;;;1497272;39;20038;-57
2021/06/23 05:08:08;;;;;;;30.60;21.60;;;;;;;;;;1497445;39;20077;-57
2021/06/23 05:09:09;;;;;;;34.67;22.83;;;;;;;;;;1497157;39;20047;-57
2021/06/23 05:10:11;;;;;;;32.38;22.63;;;;;;;;;;1497051;39;20020;-58
2021/06/23 05:11:13;;;;;;;32.35;22.33;;;;;;;;;;1497082;39;20054;-57
2021/06/23 05:12:15;;;;;;;29.95;22.17;;;;;;;;;;1497080;39;20023;-58
2021/06/23 05:13:17;;;;;;;30.52;21.60;;;;;;;;;;1497173;39;20096;-57
2021/06/23 05:14:18;;;;;;;33.40;21.90;;;;;;;;;;1497269;39;20027;-57
2021/06/23 05:15:20;;;;;;;34.22;22.52;;;;;;;;;;1497261;39;20371;-58
2021/06/23 05:16:22;;;;;;;28.80;21.88;;;;;;;;;;1497419;39;20031;-58
2021/06/23 05:17:24;;;;;;;31.33;22.25;;;;;;;;;;1497291;39;20041;-58
2021/06/23 05:18:28;;;;;;;32.28;22.48;;;;;;;;;;1497000;39;20039;-59
2021/06/23 05:19:31;;;;;;;32.08;22.63;;;;;;;;;;1497127;39;20031;-57
2021/06/23 05:20:32;;;;;;;36.58;23.08;;;;;;;;;;1497274;39;20023;-58
2021/06/23 05:21:34;;;;;;;32.85;22.40;;;;;;;;;;1497257;39;20049;-57
2021/06/23 05:22:35;;;;;;;32.28;21.88;;;;;;;;;;1497348;39;20023;-57
2021/06/23 05:23:37;;;;;;;35.58;24.65;;;;;;;;;;1497340;39;20028;-57
2021/06/23 05:24:39;;;;;;;33.92;22.85;;;;;;;;;;1497168;39;20028;-58
2021/06/23 05:25:41;;;;;;;32.95;23.08;;;;;;;;;;1497072;39;20035;-58
2021/06/23 05:26:42;;;;;;;32.97;23.10;;;;;;;;;;1496934;39;20027;-58
2021/06/23 05:27:44;;;;;;;34.45;24.00;;;;;;;;;;1497078;39;20397;-58
2021/06/23 05:28:45;;;;;;;33.15;24.10;;;;;;;;;;1497021;39;20418;-57
2021/06/23 05:29:47;;;;;;;32.38;23.33;;;;;;;;;;1497352;39;20031;-58
2021/06/23 05:30:47;;;;;;;30.95;22.75;;;;;;;;;;1497220;39;20375;-58
2021/06/23 05:31:51;;;;;;;35.22;23.73;;;;;;;;;;1497334;39;20027;-58
2021/06/23 05:32:52;;;;;;;35.80;23.17;;;;;;;;;;1497224;39;20028;-57
2021/06/23 05:33:53;;;;;;;32.58;22.92;;;;;;;;;;1497031;39;20032;-57
2021/06/23 05:34:55;;;;;;;30.08;22.35;;;;;;;;;;1497100;39;20047;-59
2021/06/23 05:35:57;;;;;;;29.85;21.92;;;;;;;;;;1497149;39;20023;-58
2021/06/23 05:36:58;;;;;;;33.17;22.75;;;;;;;;;;1497017;39;20032;-57
2021/06/23 05:38:00;;;;;;;29.27;21.85;;;;;;;;;;1497132;39;20023;-57
2021/06/23 05:39:01;;;;;;;30.48;22.92;;;;;;;;;;1497113;39;20031;-58
2021/06/23 05:40:02;;;;;;;36.05;24.45;;;;;;;;;;1497312;39;20049;-58
2021/06/23 05:41:04;;;;;;;34.67;24.08;;;;;;;;;;1497333;39;20038;-57
2021/06/23 05:42:07;;;;;;;35.63;24.40;;;;;;;;;;1497251;39;20027;-58
2021/06/23 05:43:07;;;;;;;35.40;24.65;;;;;;;;;;1497342;39;20031;-59
2021/06/23 05:44:10;;;;;;;32.75;22.17;;;;;;;;;;1497341;39;20290;-58
2021/06/23 05:45:11;;;;;;;36.05;22.80;;;;;;;;;;1497121;39;20034;-57
2021/06/23 05:46:13;;;;;;;32.40;22.23;;;;;;;;;;1497208;39;20031;-57
2021/06/23 05:47:16;;;;;;;32.92;22.23;;;;;;;;;;1497060;39;20027;-57
2021/06/23 05:48:18;;;;;;;31.30;21.88;;;;;;;;;;1496981;39;20028;-57
2021/06/23 05:49:19;;;;;;;33.30;23.42;;;;;;;;;;1496970;39;20398;-57
2021/06/23 05:50:20;;;;;;;30.50;22.33;;;;;;;;;;1497069;39;20298;-58
2021/06/23 05:51:21;;;;;;;32.42;21.85;;;;;;;;;;1497109;39;20279;-58
2021/06/23 05:52:23;;;;;;;29.90;22.58;;;;;;;;;;1497052;39;20054;-57
2021/06/23 05:53:24;;;;;;;32.40;22.42;;;;;;;;;;1497297;39;20034;-58
2021/06/23 05:54:26;;;;;;;31.95;22.08;;;;;;;;;;1497264;39;20290;-58
2021/06/23 05:55:27;;;;;;;28.92;21.05;;;;;;;;;;1496951;39;20035;-58
2021/06/23 05:56:29;;;;;;;28.60;20.88;;;;;;;;;;1497059;39;20031;-58
2021/06/23 05:57:29;;;;;;;30.25;21.13;;;;;;;;;;1497044;39;20276;-57
2021/06/23 05:58:32;;;;;;;30.60;21.17;;;;;;;;;;1497011;39;20032;-59
2021/06/23 05:59:33;;;;;;;31.13;23.38;;;;;;;;;;1496995;39;20035;-57
2021/06/23 06:00:36;;;;;;;31.63;21.73;;;;;;;;;;1497332;39;20042;-57
2021/06/23 06:01:36;;;;;;;31.73;21.73;;;;;;;;;;1497163;39;20028;-57
2021/06/23 06:02:40;;;;;;;33.13;23.15;;;;;;;;;;1497201;39;20027;-57
2021/06/23 06:03:40;;;;;;;30.75;21.77;;;;;;;;;;1496952;39;20031;-57
2021/06/23 06:04:42;;;;;;;33.10;22.48;;;;;;;;;;1497131;39;20030;-57
2021/06/23 06:05:43;;;;;;;32.22;23.20;;;;;;;;;;1496921;39;20387;-57
2021/06/23 06:06:46;;;;;;;36.05;23.77;;;;;;;;;;1497112;39;20051;-58
2021/06/23 06:07:48;;;;;;;29.70;21.95;;;;;;;;;;1497219;39;20035;-57
2021/06/23 06:08:50;;;;;;;35.03;23.00;;;;;;;;;;1497033;39;20031;-57